createdAt,value
2019-03-26T00:01:47.223Z,13.30
2019-03-26T00:04:18.158Z,13.83
2019-03-26T00:06:49.070Z,13.30
2019-03-26T00:09:20.329Z,12.53
2019-03-26T00:11:51.246Z,12.00
2019-03-26T00:14:22.162Z,14.90
2019-03-26T00:16:53.053Z,12.90
2019-03-26T00:19:23.950Z,11.93
2019-03-26T00:21:54.850Z,14.67
2019-03-26T00:24:25.870Z,14.90
2019-03-26T00:26:56.738Z,12.30
2019-03-26T00:29:27.668Z,15.90
2019-03-26T00:31:58.561Z,14.23
2019-03-26T00:34:29.475Z,15.07
2019-03-26T00:37:00.365Z,17.00
2019-03-26T00:39:31.294Z,22.27
2019-03-26T00:42:02.193Z,16.87
2019-03-26T00:44:33.128Z,13.93
2019-03-26T00:47:04.009Z,17.97
2019-03-26T00:49:34.942Z,16.10
2019-03-26T00:52:05.841Z,15.97
2019-03-26T00:54:36.760Z,16.93
2019-03-26T00:57:07.655Z,17.10
2019-03-26T00:59:38.606Z,15.33
2019-03-26T01:02:09.501Z,15.03
2019-03-26T01:04:40.858Z,17.77
2019-03-26T01:07:11.777Z,17.73
2019-03-26T01:09:42.717Z,17.27
2019-03-26T01:12:14.741Z,16.17
2019-03-26T01:14:45.673Z,18.03
2019-03-26T01:17:16.581Z,15.17
2019-03-26T01:19:47.917Z,19.00
2019-03-26T01:22:18.806Z,16.23
2019-03-26T01:24:49.757Z,20.67
2019-03-26T01:27:20.655Z,20.70
2019-03-26T01:29:51.614Z,22.03
2019-03-26T01:32:22.517Z,19.83
2019-03-26T01:34:53.866Z,19.03
2019-03-26T01:37:24.786Z,20.57
2019-03-26T01:39:55.890Z,19.80
2019-03-26T01:42:26.901Z,17.27
2019-03-26T01:44:57.930Z,18.27
2019-03-26T01:47:40.178Z,21.63
2019-03-26T01:50:12.566Z,20.67
2019-03-26T01:52:44.535Z,21.33
2019-03-26T01:55:15.489Z,22.50
2019-03-26T01:57:46.399Z,21.60
2019-03-26T02:00:17.446Z,26.93
2019-03-26T02:02:48.347Z,19.47
2019-03-26T02:05:20.716Z,17.73
2019-03-26T02:07:51.620Z,22.37
2019-03-26T02:10:22.528Z,22.37
2019-03-26T02:12:53.441Z,19.40
2019-03-26T02:15:32.167Z,22.50
2019-03-26T02:18:03.872Z,21.47
2019-03-26T02:20:34.793Z,22.93
2019-03-26T02:23:05.751Z,22.43
2019-03-26T02:25:36.850Z,25.37
2019-03-26T02:28:07.744Z,22.97
2019-03-26T02:30:38.678Z,23.20
2019-03-26T02:33:09.598Z,23.50
2019-03-26T02:35:40.805Z,20.70
2019-03-26T02:38:11.720Z,22.60
2019-03-26T02:40:42.663Z,22.03
2019-03-26T02:43:13.566Z,25.23
2019-03-26T02:45:44.537Z,20.17
2019-03-26T02:48:15.415Z,26.43
2019-03-26T02:50:46.435Z,22.20
2019-03-26T02:53:17.326Z,25.90
2019-03-26T02:55:48.519Z,20.70
2019-03-26T02:58:19.487Z,20.33
2019-03-26T03:00:50.422Z,24.87
2019-03-26T03:03:21.298Z,19.47
2019-03-26T03:05:52.443Z,22.97
2019-03-26T03:08:23.334Z,24.73
2019-03-26T03:10:55.324Z,24.03
2019-03-26T03:13:26.374Z,25.70
2019-03-26T03:15:57.384Z,25.67
2019-03-26T03:18:28.329Z,23.53
2019-03-26T03:20:59.270Z,21.80
2019-03-26T03:23:30.171Z,15.63
2019-03-26T03:26:01.178Z,19.40
2019-03-26T03:28:32.030Z,21.00
2019-03-26T03:31:02.958Z,23.73
2019-03-26T03:33:33.850Z,23.10
2019-03-26T03:36:04.788Z,27.40
2019-03-26T03:38:36.745Z,25.23
2019-03-26T03:41:07.953Z,23.40
2019-03-26T03:43:38.847Z,21.23
2019-03-26T03:46:09.834Z,22.27
2019-03-26T03:48:40.779Z,22.93
2019-03-26T03:51:14.547Z,19.10
2019-03-26T03:53:45.553Z,22.87
2019-03-26T03:56:20.095Z,19.07
2019-03-26T03:58:52.797Z,17.60
2019-03-26T04:01:23.710Z,17.27
2019-03-26T04:03:54.601Z,16.53
2019-03-26T04:06:25.543Z,22.87
2019-03-26T04:08:56.431Z,17.90
2019-03-26T04:11:27.443Z,18.07
2019-03-26T04:13:58.369Z,16.93
2019-03-26T04:16:29.308Z,17.83
2019-03-26T04:19:00.183Z,15.90
2019-03-26T04:21:31.202Z,17.93
2019-03-26T04:24:02.092Z,21.30
2019-03-26T04:26:33.085Z,18.50
2019-03-26T04:29:04.009Z,14.23
2019-03-26T04:31:35.014Z,18.30
2019-03-26T04:34:05.895Z,16.47
2019-03-26T04:36:36.804Z,25.47
2019-03-26T04:39:08.391Z,19.77
2019-03-26T04:41:39.331Z,19.67
2019-03-26T04:44:10.203Z,18.77
2019-03-26T04:46:41.121Z,15.07
2019-03-26T04:49:12.012Z,15.57
2019-03-26T04:51:42.933Z,21.23
2019-03-26T04:54:13.862Z,22.37
2019-03-26T04:56:44.794Z,26.43
2019-03-26T04:59:15.686Z,23.77
2019-03-26T05:01:46.632Z,28.03
2019-03-26T05:04:17.534Z,30.63
2019-03-26T05:06:48.469Z,31.70
2019-03-26T05:09:19.367Z,33.13
2019-03-26T05:11:50.344Z,30.97
2019-03-26T05:14:21.260Z,31.33
2019-03-26T05:17:10.950Z,32.37
2019-03-26T05:19:41.833Z,29.93
2019-03-26T05:22:23.528Z,34.83
2019-03-26T05:24:45.266Z,34.47
2019-03-26T05:27:16.283Z,30.80
2019-03-26T05:29:47.170Z,34.97
2019-03-26T05:32:18.080Z,37.03
2019-03-26T05:34:48.961Z,36.73
2019-03-26T05:37:20.808Z,37.87
2019-03-26T05:39:51.716Z,37.70
2019-03-26T05:42:22.733Z,38.27
2019-03-26T05:44:53.617Z,40.50
2019-03-26T05:47:24.621Z,44.17
2019-03-26T05:49:55.518Z,43.00
2019-03-26T05:52:26.530Z,34.50
2019-03-26T05:54:57.429Z,37.10
2019-03-26T05:57:28.393Z,39.97
2019-03-26T05:59:59.261Z,32.57
2019-03-26T06:02:30.193Z,33.77
2019-03-26T06:05:01.094Z,33.93
2019-03-26T06:07:32.020Z,32.23
2019-03-26T06:10:02.909Z,35.23
2019-03-26T06:12:33.887Z,26.50
2019-03-26T06:15:05.372Z,27.40
2019-03-26T06:17:36.661Z,23.63
2019-03-26T06:20:08.171Z,24.80
2019-03-26T06:22:39.174Z,22.47
2019-03-26T06:25:10.292Z,29.27
2019-03-26T06:27:41.322Z,25.00
2019-03-26T06:30:12.635Z,27.67
2019-03-26T06:32:43.889Z,26.60
2019-03-26T06:35:15.849Z,30.27
2019-03-26T06:37:46.802Z,28.83
2019-03-26T06:40:18.090Z,26.27
2019-03-26T06:42:49.025Z,26.70
2019-03-26T06:45:19.914Z,27.10
2019-03-26T06:47:50.844Z,28.63
2019-03-26T06:50:21.740Z,28.27
2019-03-26T06:52:53.140Z,26.47
2019-03-26T06:55:25.089Z,21.23
2019-03-26T06:57:56.113Z,28.60
2019-03-26T07:00:33.929Z,20.70
2019-03-26T07:03:06.281Z,22.73
2019-03-26T07:05:37.183Z,22.20
2019-03-26T07:08:08.121Z,20.57
2019-03-26T07:10:39.021Z,22.97
2019-03-26T07:13:10.121Z,25.57
2019-03-26T07:15:41.020Z,20.80
2019-03-26T07:18:11.954Z,21.93
2019-03-26T07:20:42.891Z,22.27
2019-03-26T07:23:14.201Z,18.67
2019-03-26T07:25:45.395Z,13.47
2019-03-26T07:28:16.648Z,17.93
2019-03-26T07:30:51.345Z,20.97
2019-03-26T07:33:22.863Z,17.83
2019-03-26T07:35:54.019Z,19.97
2019-03-26T07:38:26.446Z,16.87
2019-03-26T07:40:57.353Z,14.77
2019-03-26T07:43:28.661Z,17.67
2019-03-26T07:45:59.554Z,17.47
2019-03-26T07:48:30.905Z,14.27
2019-03-26T07:51:01.799Z,19.10
2019-03-26T07:53:33.192Z,19.47
2019-03-26T07:56:04.431Z,17.03
2019-03-26T07:58:35.369Z,18.40
2019-03-26T08:01:06.282Z,22.77
2019-03-26T08:03:37.246Z,21.73
2019-03-26T08:06:08.146Z,18.50
2019-03-26T08:08:40.744Z,18.40
2019-03-26T08:11:11.630Z,19.30
2019-03-26T08:13:42.574Z,16.73
2019-03-26T08:16:13.494Z,17.60
2019-03-26T08:18:44.390Z,21.80
2019-03-26T08:21:16.361Z,12.00
2019-03-26T08:23:47.728Z,21.40
2019-03-26T08:26:18.618Z,17.17
2019-03-26T08:28:49.570Z,14.10
2019-03-26T08:31:20.474Z,16.10
2019-03-26T08:33:51.484Z,16.67
2019-03-26T08:36:22.787Z,13.83
2019-03-26T08:38:53.822Z,17.00
2019-03-26T08:41:24.710Z,19.27
2019-03-26T08:43:55.653Z,15.43
2019-03-26T08:46:26.574Z,13.37
2019-03-26T08:48:58.317Z,9.27
2019-03-26T08:51:29.226Z,17.17
2019-03-26T08:54:01.233Z,11.60
2019-03-26T08:56:32.134Z,11.00
2019-03-26T08:59:03.101Z,12.80
2019-03-26T09:01:33.991Z,13.90
2019-03-26T09:04:04.991Z,11.10
2019-03-26T09:06:35.889Z,16.03
2019-03-26T09:09:08.690Z,13.13
2019-03-26T09:11:39.591Z,14.20
2019-03-26T09:14:10.610Z,14.67
2019-03-26T09:16:41.525Z,15.67
2019-03-26T09:19:12.557Z,16.50
2019-03-26T09:21:43.446Z,11.47
2019-03-26T09:24:14.365Z,12.13
2019-03-26T09:26:45.257Z,12.80
2019-03-26T09:29:16.210Z,12.37
2019-03-26T09:31:47.113Z,11.57
2019-03-26T09:34:18.041Z,11.63
2019-03-26T09:36:48.933Z,14.47
2019-03-26T09:39:19.867Z,8.17
2019-03-26T09:41:50.829Z,11.97
2019-03-26T09:44:21.862Z,10.80
2019-03-26T09:46:52.743Z,9.60
2019-03-26T09:49:23.753Z,12.10
2019-03-26T09:51:54.632Z,14.33
2019-03-26T09:54:25.580Z,13.20
2019-03-26T09:56:56.477Z,8.03
2019-03-26T09:59:27.418Z,16.97
2019-03-26T10:01:58.322Z,14.90
2019-03-26T10:04:29.334Z,12.57
2019-03-26T10:07:00.230Z,11.87
2019-03-26T10:09:31.182Z,15.27
2019-03-26T10:12:02.069Z,11.40
2019-03-26T10:14:33.147Z,10.97
2019-03-26T10:17:04.065Z,12.00
2019-03-26T10:19:36.154Z,11.53
2019-03-26T10:22:07.050Z,15.73
2019-03-26T10:24:37.993Z,12.10
2019-03-26T10:27:09.954Z,10.03
2019-03-26T10:29:40.958Z,13.40
2019-03-26T10:32:11.856Z,10.10
2019-03-26T10:34:42.880Z,13.97
2019-03-26T10:37:13.776Z,12.23
2019-03-26T10:39:44.710Z,10.00
2019-03-26T10:42:15.609Z,10.10
2019-03-26T10:44:46.886Z,10.67
2019-03-26T10:47:17.783Z,13.00
2019-03-26T10:49:48.700Z,11.33
2019-03-26T10:52:19.593Z,8.97
2019-03-26T10:54:50.526Z,11.23
2019-03-26T10:57:21.988Z,15.60
2019-03-26T10:59:53.138Z,13.23
2019-03-26T11:02:24.025Z,12.40
2019-03-26T11:04:54.956Z,14.40
2019-03-26T11:07:25.835Z,15.33
2019-03-26T11:09:56.945Z,11.70
2019-03-26T11:12:27.829Z,11.27
2019-03-26T11:14:58.902Z,14.30
2019-03-26T11:17:29.797Z,9.23
2019-03-26T11:20:00.811Z,12.87
2019-03-26T11:22:31.701Z,13.00
2019-03-26T11:25:02.625Z,9.53
2019-03-26T11:27:34.582Z,13.37
2019-03-26T11:30:06.912Z,11.10
2019-03-26T11:32:40.292Z,7.97
2019-03-26T11:35:12.094Z,9.50
2019-03-26T11:37:42.969Z,7.77
2019-03-26T11:40:14.189Z,5.53
2019-03-26T11:42:45.081Z,6.47
2019-03-26T11:45:16.507Z,5.57
2019-03-26T11:47:47.425Z,5.30
2019-03-26T11:50:18.847Z,6.73
2019-03-26T11:52:49.809Z,6.93
2019-03-26T11:55:21.924Z,4.67
2019-03-26T11:57:53.275Z,5.40
2019-03-26T12:00:30.317Z,4.80
2019-03-26T12:03:01.261Z,5.10
2019-03-26T12:05:32.201Z,4.90
2019-03-26T12:08:03.089Z,3.73
2019-03-26T12:10:34.114Z,4.13
2019-03-26T12:13:04.985Z,7.77
2019-03-26T12:15:36.046Z,6.77
2019-03-26T12:18:06.939Z,6.83
2019-03-26T12:20:37.954Z,3.87
2019-03-26T12:23:08.849Z,6.53
2019-03-26T12:25:39.797Z,6.03
2019-03-26T12:28:10.691Z,6.73
2019-03-26T12:30:41.765Z,8.30
2019-03-26T12:33:12.655Z,6.60
2019-03-26T12:35:43.594Z,4.53
2019-03-26T12:38:19.421Z,2.47
2019-03-26T12:41:09.127Z,4.73
2019-03-26T12:43:40.006Z,5.60
2019-03-26T12:46:10.955Z,4.43
2019-03-26T12:48:41.856Z,3.87
2019-03-26T12:51:12.769Z,6.17
2019-03-26T12:53:43.666Z,3.33
2019-03-26T12:56:14.609Z,4.23
2019-03-26T12:58:45.512Z,5.37
2019-03-26T13:01:16.406Z,4.47
2019-03-26T13:03:47.286Z,4.13
2019-03-26T13:06:18.229Z,8.23
2019-03-26T13:08:49.121Z,6.03
2019-03-26T13:11:20.142Z,6.23
2019-03-26T13:13:51.086Z,5.73
2019-03-26T13:16:22.181Z,7.23
2019-03-26T13:18:53.228Z,4.97
2019-03-26T13:21:24.148Z,4.77
2019-03-26T13:23:55.046Z,5.53
2019-03-26T13:26:25.957Z,4.80
2019-03-26T13:28:56.846Z,5.17
2019-03-26T13:31:27.865Z,7.33
2019-03-26T13:33:58.749Z,4.60
2019-03-26T13:36:29.778Z,6.03
2019-03-26T13:39:00.954Z,5.67
2019-03-26T13:41:33.645Z,8.43
2019-03-26T13:44:04.604Z,5.60
2019-03-26T13:46:35.605Z,8.73
2019-03-26T13:49:06.493Z,8.20
2019-03-26T13:51:37.498Z,4.80
2019-03-26T13:54:08.374Z,8.17
2019-03-26T13:56:39.390Z,7.13
2019-03-26T13:59:10.274Z,8.97
2019-03-26T14:01:41.229Z,5.33
2019-03-26T14:04:12.114Z,7.33
2019-03-26T14:06:44.111Z,9.63
2019-03-26T14:09:14.989Z,6.97
2019-03-26T14:11:45.990Z,8.47
2019-03-26T14:14:16.879Z,8.93
2019-03-26T14:16:47.958Z,8.03
2019-03-26T14:19:18.874Z,8.67
2019-03-26T14:21:49.805Z,5.27
2019-03-26T14:24:20.724Z,10.60
2019-03-26T14:26:51.662Z,7.73
2019-03-26T14:29:24.685Z,10.97
2019-03-26T14:31:55.190Z,8.47
2019-03-26T14:34:26.089Z,8.50
2019-03-26T14:36:57.046Z,6.97
2019-03-26T14:39:27.996Z,5.17
2019-03-26T14:41:58.998Z,8.73
2019-03-26T14:44:29.893Z,7.73
2019-03-26T14:47:01.254Z,5.90
2019-03-26T14:49:32.242Z,9.13
2019-03-26T14:52:04.823Z,7.63
2019-03-26T14:54:36.755Z,4.60
2019-03-26T14:57:07.760Z,7.80
2019-03-26T14:59:38.753Z,7.40
2019-03-26T15:02:09.815Z,7.10
2019-03-26T15:04:40.884Z,12.37
2019-03-26T15:07:12.470Z,9.80
2019-03-26T15:09:45.395Z,10.00
2019-03-26T15:12:16.407Z,6.90
2019-03-26T15:14:47.307Z,8.40
2019-03-26T15:17:18.266Z,8.00
2019-03-26T15:19:49.145Z,9.53
2019-03-26T15:22:20.102Z,6.33
2019-03-26T15:24:51.061Z,5.97
2019-03-26T15:27:22.094Z,5.83
2019-03-26T15:29:53.370Z,7.60
2019-03-26T15:32:24.286Z,8.40
2019-03-26T15:34:55.166Z,6.63
2019-03-26T15:37:26.462Z,8.13
2019-03-26T15:39:57.354Z,5.70
2019-03-26T15:42:28.373Z,7.50
2019-03-26T15:44:59.241Z,10.40
2019-03-26T15:47:30.254Z,10.23
2019-03-26T15:50:01.134Z,7.50
2019-03-26T15:52:32.052Z,8.53
2019-03-26T15:55:02.949Z,7.37
2019-03-26T15:57:33.909Z,11.33
2019-03-26T16:00:05.604Z,10.27
2019-03-26T16:02:37.020Z,5.87
2019-03-26T16:05:08.113Z,9.63
2019-03-26T16:07:40.514Z,7.47
2019-03-26T16:10:11.510Z,9.73
2019-03-26T16:12:42.918Z,10.13
2019-03-26T16:15:13.833Z,9.10
2019-03-26T16:17:45.837Z,8.10
2019-03-26T16:20:16.833Z,9.43
2019-03-26T16:22:48.201Z,12.00
2019-03-26T16:25:19.106Z,11.70
2019-03-26T16:27:51.130Z,9.00
2019-03-26T16:30:22.031Z,6.73
2019-03-26T16:32:52.950Z,12.87
2019-03-26T16:35:23.837Z,8.63
2019-03-26T16:37:55.425Z,8.67
2019-03-26T16:40:26.302Z,8.83
2019-03-26T16:42:57.230Z,9.77
2019-03-26T16:45:28.130Z,7.70
2019-03-26T16:47:59.069Z,9.27
2019-03-26T16:50:29.945Z,9.23
2019-03-26T16:53:02.127Z,9.30
2019-03-26T16:55:32.997Z,9.57
2019-03-26T16:58:04.330Z,8.37
2019-03-26T17:00:36.061Z,7.87
2019-03-26T17:03:07.094Z,8.33
2019-03-26T17:05:37.982Z,12.23
2019-03-26T17:08:09.178Z,8.53
2019-03-26T17:10:41.135Z,10.37
2019-03-26T17:13:12.193Z,12.50
2019-03-26T17:15:43.086Z,8.23
2019-03-26T17:18:14.018Z,7.90
2019-03-26T17:20:44.921Z,5.73
2019-03-26T17:23:16.384Z,14.17
2019-03-26T17:25:47.323Z,9.77
2019-03-26T17:28:18.238Z,9.43
2019-03-26T17:30:50.217Z,10.07
2019-03-26T17:33:21.137Z,6.00
2019-03-26T17:35:52.047Z,11.30
2019-03-26T17:38:22.965Z,11.57
2019-03-26T17:40:53.851Z,5.63
2019-03-26T17:43:24.870Z,9.07
2019-03-26T17:45:55.781Z,12.63
2019-03-26T17:48:26.782Z,6.70
2019-03-26T17:50:57.689Z,10.97
2019-03-26T17:53:28.710Z,11.13
2019-03-26T17:55:59.641Z,9.07
2019-03-26T17:58:30.589Z,9.63
2019-03-26T18:01:01.561Z,9.57
2019-03-26T18:03:33.229Z,8.97
2019-03-26T18:06:04.118Z,9.67
2019-03-26T18:08:35.121Z,5.77
2019-03-26T18:11:05.993Z,7.97
2019-03-26T18:13:36.979Z,7.67
2019-03-26T18:16:07.893Z,9.83
2019-03-26T18:18:38.933Z,15.07
2019-03-26T18:21:09.829Z,7.30
2019-03-26T18:23:40.769Z,8.93
2019-03-26T18:26:11.670Z,7.47
2019-03-26T18:28:42.980Z,7.53
2019-03-26T18:31:13.866Z,10.10
2019-03-26T18:33:44.782Z,10.13
2019-03-26T18:36:16.758Z,9.37
2019-03-26T18:38:47.762Z,10.07
2019-03-26T18:41:18.737Z,14.03
2019-03-26T18:43:49.661Z,10.23
2019-03-26T18:46:20.570Z,12.20
2019-03-26T18:48:51.886Z,12.47
2019-03-26T18:51:22.876Z,12.37
2019-03-26T18:53:53.877Z,7.77
2019-03-26T18:56:24.841Z,15.50
2019-03-26T18:58:55.881Z,9.57
2019-03-26T19:01:26.833Z,8.63
2019-03-26T19:03:57.805Z,12.13
2019-03-26T19:06:28.777Z,7.57
2019-03-26T19:08:59.718Z,8.33
2019-03-26T19:11:31.016Z,10.17
2019-03-26T19:14:01.970Z,10.23
2019-03-26T19:16:32.865Z,11.93
2019-03-26T19:19:03.863Z,11.87
2019-03-26T19:21:35.069Z,10.67
2019-03-26T19:24:06.033Z,14.63
2019-03-26T19:26:36.917Z,13.40
2019-03-26T19:29:08.213Z,14.20
2019-03-26T19:31:39.103Z,10.33
2019-03-26T19:34:10.111Z,10.20
2019-03-26T19:36:40.991Z,7.47
2019-03-26T19:39:11.938Z,14.20
2019-03-26T19:41:42.929Z,11.03
2019-03-26T19:44:13.873Z,10.87
2019-03-26T19:46:44.755Z,13.40
2019-03-26T19:49:15.685Z,10.43
2019-03-26T19:51:46.561Z,9.43
2019-03-26T19:54:17.482Z,13.43
2019-03-26T19:56:48.383Z,12.73
2019-03-26T19:59:19.666Z,11.83
2019-03-26T20:01:50.566Z,12.73
2019-03-26T20:04:21.487Z,11.83
2019-03-26T20:06:52.374Z,11.40
2019-03-26T20:09:25.391Z,11.37
2019-03-26T20:11:56.630Z,11.83
2019-03-26T20:14:27.586Z,11.70
2019-03-26T20:16:58.484Z,13.90
2019-03-26T20:19:29.421Z,7.63
2019-03-26T20:22:00.307Z,13.27
2019-03-26T20:24:32.426Z,8.07
2019-03-26T20:27:03.315Z,12.90
2019-03-26T20:29:34.230Z,11.57
2019-03-26T20:32:05.122Z,10.70
2019-03-26T20:34:36.142Z,16.90
2019-03-26T20:37:07.021Z,8.43
2019-03-26T20:39:38.062Z,11.73
2019-03-26T20:42:09.005Z,12.73
2019-03-26T20:44:39.998Z,14.23
2019-03-26T20:47:10.902Z,13.60
2019-03-26T20:49:41.823Z,12.50
2019-03-26T20:52:12.718Z,13.63
2019-03-26T20:54:43.717Z,15.83
2019-03-26T20:57:15.202Z,16.23
2019-03-26T20:59:46.383Z,12.17
2019-03-26T21:02:17.343Z,9.87
2019-03-26T21:04:49.423Z,13.50
2019-03-26T21:07:20.305Z,15.57
2019-03-26T21:09:51.605Z,10.77
2019-03-26T21:12:22.497Z,11.50
2019-03-26T21:14:53.717Z,10.27
2019-03-26T21:17:24.610Z,10.00
2019-03-26T21:19:55.541Z,9.13
2019-03-26T21:22:26.449Z,11.27
2019-03-26T21:24:57.761Z,9.30
2019-03-26T21:27:29.807Z,15.13
2019-03-26T21:30:15.502Z,14.77
2019-03-26T21:32:44.521Z,13.00
2019-03-26T21:35:15.821Z,12.13
2019-03-26T21:37:46.702Z,12.63
2019-03-26T21:40:17.739Z,13.07
2019-03-26T21:42:48.625Z,17.13
2019-03-26T21:45:25.963Z,14.53
2019-03-26T21:47:56.866Z,16.90
2019-03-26T21:50:27.881Z,15.53
2019-03-26T21:52:58.765Z,17.10
2019-03-26T21:55:29.693Z,13.80
2019-03-26T21:58:00.587Z,11.97
2019-03-26T22:00:31.509Z,16.17
2019-03-26T22:03:02.469Z,12.77
2019-03-26T22:05:33.797Z,14.83
2019-03-26T22:08:04.683Z,11.13
2019-03-26T22:10:35.696Z,12.00
2019-03-26T22:13:06.750Z,13.30
2019-03-26T22:15:37.736Z,13.90
2019-03-26T22:18:08.613Z,11.03
2019-03-26T22:20:40.654Z,12.63
2019-03-26T22:23:12.694Z,14.53
2019-03-26T22:25:43.703Z,11.97
2019-03-26T22:28:14.594Z,12.73
2019-03-26T22:30:45.596Z,10.07
2019-03-26T22:33:16.470Z,12.27
2019-03-26T22:35:47.398Z,12.53
2019-03-26T22:38:18.288Z,11.97
2019-03-26T22:40:49.203Z,9.33
2019-03-26T22:43:20.090Z,12.27
2019-03-26T22:45:51.009Z,12.63
2019-03-26T22:48:21.897Z,15.60
2019-03-26T22:50:52.869Z,13.20
2019-03-26T22:53:23.790Z,11.50
2019-03-26T22:55:54.751Z,12.57
2019-03-26T22:58:25.636Z,19.63
2019-03-26T23:00:56.882Z,12.93
2019-03-26T23:03:29.391Z,14.20
2019-03-26T23:06:00.317Z,15.80
2019-03-26T23:08:31.270Z,16.53
2019-03-26T23:11:02.735Z,10.73
2019-03-26T23:13:33.606Z,14.13
2019-03-26T23:16:04.573Z,13.60
2019-03-26T23:18:35.468Z,10.03
2019-03-26T23:21:06.399Z,17.13
2019-03-26T23:23:37.281Z,18.23
2019-03-26T23:26:08.282Z,18.83
2019-03-26T23:28:39.245Z,14.27
2019-03-26T23:31:10.189Z,18.23
2019-03-26T23:33:41.090Z,14.77
2019-03-26T23:36:12.154Z,18.10
2019-03-26T23:38:43.042Z,18.10
2019-03-26T23:41:14.065Z,13.87
2019-03-26T23:43:44.959Z,16.97
2019-03-26T23:46:15.902Z,12.93
2019-03-26T23:48:46.797Z,20.20
2019-03-26T23:51:17.731Z,11.27
2019-03-26T23:53:48.641Z,18.77
2019-03-26T23:56:19.553Z,10.90
2019-03-26T23:58:50.537Z,10.97
